Time;durP1;ratioP1;P1;durP2;ratioP2;P2;SDS_P1;SDS_P2;PMS_P1;PMS_P2;Temp;Humidity;BMP_temperature;BMP_pressure;BME280_temperature;BME280_humidity;BME280_pressure;Samples;Min_cycle;Max_cycle;Signal;HPM_P1;HPM_P2
2023/07/15 00:00:53;;;;;;;12.60;8.10;;;;;;;19.76;100.00;100583.56;106827;1285;73090;-80
2023/07/15 00:03:20;;;;;;;15.10;8.40;;;;;;;19.77;100.00;100579.16;106864;1285;74454;-80
2023/07/15 00:05:47;;;;;;;13.00;8.40;;;;;;;19.74;100.00;100579.17;106808;1285;72606;-80
2023/07/15 00:08:13;;;;;;;15.10;8.50;;;;;;;19.70;100.00;100581.66;106772;1285;61914;-80
2023/07/15 00:10:43;;;;;;;17.00;8.70;;;;;;;19.68;100.00;100584.69;106849;1285;58119;-80
2023/07/15 00:13:12;;;;;;;12.20;8.00;;;;;;;19.69;100.00;100589.73;106787;1286;72753;-80
2023/07/15 00:15:38;;;;;;;15.40;8.20;;;;;;;19.66;100.00;100588.13;106822;1285;74118;-80
2023/07/15 00:18:03;;;;;;;18.60;8.20;;;;;;;19.64;100.00;100588.68;106781;1285;58075;-80
2023/07/15 00:20:29;;;;;;;12.50;7.80;;;;;;;19.60;100.00;100583.36;106822;1285;58329;-80
2023/07/15 00:22:54;;;;;;;15.00;8.50;;;;;;;19.58;100.00;100586.54;106865;1285;58119;-80
2023/07/15 00:25:20;;;;;;;11.60;7.70;;;;;;;19.57;100.00;100582.83;106747;1285;58128;-80
2023/07/15 00:27:47;;;;;;;12.80;8.40;;;;;;;19.50;100.00;100584.32;106490;1284;58288;-80
2023/07/15 00:30:17;;;;;;;15.40;8.40;;;;;;;19.47;100.00;100592.77;106778;1288;62613;-80
2023/07/15 00:32:45;;;;;;;15.20;8.40;;;;;;;19.43;100.00;100591.54;106835;1285;60998;-80
2023/07/15 00:35:20;;;;;;;13.30;8.20;;;;;;;19.41;100.00;100599.52;106865;1285;74205;-80
2023/07/15 00:37:47;;;;;;;13.10;7.80;;;;;;;19.38;100.00;100598.89;106543;1286;74836;-80
2023/07/15 00:40:13;;;;;;;16.40;8.30;;;;;;;19.39;100.00;100594.95;106458;1285;58172;-80
2023/07/15 00:43:00;;;;;;;15.00;8.00;;;;;;;19.32;100.00;100596.67;106701;1285;58024;-80
2023/07/15 00:45:26;;;;;;;15.30;8.60;;;;;;;19.30;100.00;100600.68;106868;1286;60048;-80
2023/07/15 00:48:15;;;;;;;12.10;7.90;;;;;;;19.29;100.00;100598.17;106930;1288;58270;-80
2023/07/15 00:50:42;;;;;;;15.90;7.90;;;;;;;19.28;100.00;100600.61;106862;1286;73415;-80
2023/07/15 00:53:09;;;;;;;13.10;7.80;;;;;;;19.29;100.00;100606.49;106591;1286;73412;-80
2023/07/15 00:55:35;;;;;;;13.90;7.70;;;;;;;19.31;100.00;100601.20;106880;1284;62792;-80
2023/07/15 00:58:01;;;;;;;12.50;8.00;;;;;;;19.27;100.00;100601.63;106459;1286;58288;-80
2023/07/15 01:00:26;;;;;;;14.30;7.80;;;;;;;19.22;100.00;100605.86;106930;1284;58278;-79
2023/07/15 01:02:52;;;;;;;16.90;8.00;;;;;;;19.21;100.00;100605.86;106894;1285;58237;-80
2023/07/15 01:05:18;;;;;;;12.20;7.10;;;;;;;19.18;100.00;100606.77;106878;1284;58309;-80
2023/07/15 01:07:44;;;;;;;14.00;7.60;;;;;;;19.14;100.00;100611.79;106929;1286;58288;-80
2023/07/15 01:10:09;;;;;;;14.90;8.20;;;;;;;19.11;100.00;100614.93;106457;1285;74693;-80
2023/07/15 01:12:35;;;;;;;12.00;7.60;;;;;;;19.06;100.00;100616.42;106433;1283;58285;-80
2023/07/15 01:15:00;;;;;;;11.00;7.00;;;;;;;19.04;100.00;100620.63;106888;1285;58337;-79
2023/07/15 01:17:26;;;;;;;13.50;7.50;;;;;;;19.03;100.00;100620.49;106928;1285;58499;-80
2023/07/15 01:19:53;;;;;;;14.70;7.60;;;;;;;19.02;100.00;100625.18;106954;1285;58959;-80
2023/07/15 01:22:19;;;;;;;12.80;7.10;;;;;;;18.99;100.00;100628.55;106935;1284;73530;-80
2023/07/15 01:24:44;;;;;;;15.50;7.30;;;;;;;18.97;100.00;100628.86;106877;1286;58270;-79
2023/07/15 01:27:10;;;;;;;12.10;7.50;;;;;;;18.94;100.00;100630.97;106572;1285;58368;-80
2023/07/15 01:29:36;;;;;;;13.50;7.60;;;;;;;18.92;100.00;100632.73;106931;1285;58237;-80
2023/07/15 01:32:01;;;;;;;13.90;7.40;;;;;;;18.92;100.00;100630.71;106917;1285;58294;-80
2023/07/15 01:34:29;;;;;;;17.00;7.70;;;;;;;18.90;100.00;100633.42;106951;1284;58244;-80
2023/07/15 01:36:56;;;;;;;13.60;7.90;;;;;;;18.90;100.00;100634.88;106734;1285;61875;-80
2023/07/15 01:39:22;;;;;;;12.10;7.10;;;;;;;18.86;100.00;100634.34;106698;1285;60640;-80
2023/07/15 01:41:47;;;;;;;10.90;6.80;;;;;;;18.82;100.00;100632.23;106927;1284;58230;-80
2023/07/15 01:44:14;;;;;;;16.40;7.20;;;;;;;18.82;100.00;100637.41;106914;1285;58251;-80
2023/07/15 01:46:40;;;;;;;12.70;7.00;;;;;;;18.80;100.00;100636.48;106923;1284;59171;-80
2023/07/15 01:49:07;;;;;;;12.70;7.50;;;;;;;18.79;100.00;100639.52;106915;1285;58341;-80
2023/07/15 01:51:35;;;;;;;16.10;7.40;;;;;;;18.77;100.00;100638.48;106912;1285;58218;-80
2023/07/15 01:54:01;;;;;;;10.70;6.30;;;;;;;18.75;100.00;100643.77;106895;1284;74642;-80
2023/07/15 01:56:26;;;;;;;11.00;6.70;;;;;;;18.77;100.00;100645.10;106895;1285;58740;-80
2023/07/15 01:58:52;;;;;;;12.60;6.90;;;;;;;18.77;100.00;100647.27;106874;1284;58416;-79
2023/07/15 02:01:18;;;;;;;18.50;7.60;;;;;;;18.78;100.00;100648.54;106890;1284;58268;-79
2023/07/15 02:03:45;;;;;;;17.40;7.20;;;;;;;18.79;100.00;100654.02;106913;1285;59310;-80
2023/07/15 02:06:10;;;;;;;12.60;6.80;;;;;;;18.79;100.00;100655.41;106911;1285;58190;-80
2023/07/15 02:08:36;;;;;;;14.10;7.10;;;;;;;18.81;100.00;100657.91;106557;1288;58385;-79
2023/07/15 02:11:01;;;;;;;11.90;7.20;;;;;;;18.83;100.00;100656.44;106856;1285;62728;-79
2023/07/15 02:13:28;;;;;;;15.40;6.80;;;;;;;18.84;100.00;100659.52;106613;1284;58416;-80
2023/07/15 02:15:53;;;;;;;11.50;7.00;;;;;;;18.89;100.00;100657.86;106890;1285;58169;-79
2023/07/15 02:18:21;;;;;;;16.80;7.00;;;;;;;18.88;100.00;100662.83;106555;1285;58692;-79
2023/07/15 02:20:49;;;;;;;11.00;6.70;;;;;;;18.88;100.00;100664.39;106890;1285;58189;-79
2023/07/15 02:23:15;;;;;;;13.60;7.00;;;;;;;18.89;100.00;100667.92;106882;1284;61642;-80
2023/07/15 02:25:41;;;;;;;12.40;6.60;;;;;;;18.93;100.00;100669.30;106944;1285;58501;-80
2023/07/15 02:28:06;;;;;;;13.10;6.70;;;;;;;18.95;100.00;100674.02;106908;1285;58218;-80
2023/07/15 02:30:32;;;;;;;16.90;6.70;;;;;;;18.91;100.00;100679.51;106898;1285;58330;-80
2023/07/15 02:32:58;;;;;;;11.70;6.10;;;;;;;18.97;100.00;100682.08;106942;1284;58295;-80
2023/07/15 02:35:23;;;;;;;16.10;6.30;;;;;;;19.05;100.00;100680.55;106970;1285;58186;-80
2023/07/15 02:37:49;;;;;;;12.70;6.60;;;;;;;19.03;100.00;100689.09;106911;1284;74623;-79
2023/07/15 02:40:15;;;;;;;13.90;6.00;;;;;;;19.09;100.00;100690.46;106885;1285;58211;-80
2023/07/15 02:42:41;;;;;;;13.40;6.40;;;;;;;19.17;100.00;100695.86;106943;1285;58473;-79
2023/07/15 02:45:11;;;;;;;12.30;6.90;;;;;;;19.22;100.00;100698.77;106939;1285;58243;-80
2023/07/15 02:47:39;;;;;;;14.90;6.20;;;;;;;19.27;100.00;100702.20;106482;1284;60196;-80
2023/07/15 02:50:07;;;;;;;10.00;5.90;;;;;;;19.35;100.00;100705.90;106928;1285;73748;-79
2023/07/15 02:52:38;;;;;;;12.30;6.30;;;;;;;19.41;100.00;100705.56;106705;1283;73355;-79
2023/07/15 02:55:07;;;;;;;11.60;6.20;;;;;;;19.63;100.00;100703.80;106533;1285;73445;-78
2023/07/15 02:57:33;;;;;;;10.80;5.90;;;;;;;19.79;100.00;100702.54;106907;1284;62594;-80
2023/07/15 02:59:59;;;;;;;12.30;5.70;;;;;;;19.90;100.00;100703.30;106524;1284;58737;-78
2023/07/15 03:02:24;;;;;;;12.60;5.80;;;;;;;19.98;100.00;100701.46;106894;1285;58313;-80
2023/07/15 03:04:51;;;;;;;10.50;5.40;;;;;;;20.04;100.00;100703.27;106938;1285;58270;-79
2023/07/15 03:07:17;;;;;;;15.90;6.20;;;;;;;20.09;100.00;100707.75;106918;1285;58471;-79
2023/07/15 03:09:43;;;;;;;13.30;5.40;;;;;;;20.17;100.00;100711.95;106954;1284;58264;-79
2023/07/15 03:12:09;;;;;;;10.90;6.00;;;;;;;20.26;100.00;100708.98;106881;1284;58195;-80
2023/07/15 03:14:35;;;;;;;8.60;5.50;;;;;;;20.37;100.00;100707.46;106914;1284;58295;-79
2023/07/15 03:17:02;;;;;;;12.50;5.50;;;;;;;20.45;100.00;100707.34;106958;1284;58217;-79
2023/07/15 03:19:28;;;;;;;10.10;5.60;;;;;;;20.52;100.00;100711.77;106900;1285;62832;-79
2023/07/15 03:21:53;;;;;;;10.70;6.00;;;;;;;20.64;100.00;100712.42;106955;1283;58617;-79
2023/07/15 03:24:19;;;;;;;11.80;5.60;;;;;;;20.88;100.00;100715.80;106916;1285;58208;-80
2023/07/15 03:26:44;;;;;;;12.10;5.60;;;;;;;21.26;100.00;100721.20;106656;1285;58367;-79
2023/07/15 03:29:14;;;;;;;10.60;5.60;;;;;;;21.76;100.00;100726.00;106886;1283;58200;-81
2023/07/15 03:31:39;;;;;;;15.80;5.60;;;;;;;22.20;100.00;100725.09;106536;1284;58392;-80
2023/07/15 03:34:05;;;;;;;10.00;5.90;;;;;;;22.58;100.00;100726.84;106929;1284;58222;-81
2023/07/15 03:36:31;;;;;;;7.90;5.10;;;;;;;23.06;100.00;100724.34;106717;1284;58330;-80
2023/07/15 03:38:56;;;;;;;8.90;5.50;;;;;;;23.54;100.00;100724.42;106916;1285;58463;-81
2023/07/15 03:41:22;;;;;;;11.40;5.40;;;;;;;23.98;100.00;100723.30;106572;1284;58378;-81
2023/07/15 03:43:47;;;;;;;9.90;5.40;;;;;;;24.42;100.00;100725.23;106893;1285;60957;-81
2023/07/15 03:46:13;;;;;;;8.30;5.50;;;;;;;24.73;100.00;100727.61;106716;1284;58433;-80
2023/07/15 03:48:39;;;;;;;14.50;5.70;;;;;;;25.07;100.00;100731.95;106890;1283;58320;-81
2023/07/15 03:51:08;;;;;;;9.80;5.50;;;;;;;25.56;100.00;100729.56;106922;1284;58227;-79
2023/07/15 03:53:34;;;;;;;6.50;5.00;;;;;;;26.06;100.00;100731.58;106907;1284;62594;-79
2023/07/15 03:56:00;;;;;;;14.00;5.20;;;;;;;26.35;100.00;100735.48;106399;1286;58272;-79
2023/07/15 03:58:25;;;;;;;11.60;5.40;;;;;;;26.66;100.00;100739.46;106941;1284;58246;-79
2023/07/15 04:00:51;;;;;;;9.40;6.10;;;;;;;26.91;100.00;100740.25;106960;1284;58711;-80
2023/07/15 04:03:16;;;;;;;12.40;5.60;;;;;;;27.23;100.00;100739.23;106904;1284;58297;-80
2023/07/15 04:05:42;;;;;;;15.40;5.80;;;;;;;27.58;100.00;100744.48;106546;1284;59023;-80
2023/07/15 04:08:09;;;;;;;10.00;5.80;;;;;;;27.81;100.00;100746.66;106967;1285;58350;-80
2023/07/15 04:10:35;;;;;;;9.20;5.70;;;;;;;28.10;100.00;100747.55;106947;1284;73672;-80
2023/07/15 04:13:00;;;;;;;12.00;5.60;;;;;;;28.36;100.00;100749.63;106910;1284;58179;-79
2023/07/15 04:15:26;;;;;;;10.60;5.60;;;;;;;28.76;100.00;100755.58;106930;1285;58334;-80
2023/07/15 04:17:51;;;;;;;8.40;5.80;;;;;;;29.07;99.93;100749.95;106921;1284;58214;-80
2023/07/15 04:20:17;;;;;;;12.40;6.00;;;;;;;29.39;99.81;100753.89;106804;1285;58239;-81
2023/07/15 04:22:43;;;;;;;8.00;5.60;;;;;;;29.87;95.29;100760.68;106938;1285;73258;-80
2023/07/15 04:25:11;;;;;;;10.90;6.10;;;;;;;30.13;91.49;100765.37;106901;1284;58251;-79
2023/07/15 04:27:38;;;;;;;11.60;6.20;;;;;;;30.41;89.27;100765.45;106501;1284;61251;-80
2023/07/15 04:30:05;;;;;;;17.70;6.30;;;;;;;30.68;86.06;100763.94;106534;1284;74609;-80
2023/07/15 04:32:30;;;;;;;11.40;5.60;;;;;;;30.93;84.72;100764.82;106751;1286;58246;-80
2023/07/15 04:34:56;;;;;;;9.80;6.10;;;;;;;31.17;81.00;100766.83;106545;1284;58507;-81
2023/07/15 04:37:22;;;;;;;11.10;6.00;;;;;;;31.46;80.12;100761.77;106978;1285;58418;-80
2023/07/15 04:39:48;;;;;;;9.70;5.40;;;;;;;31.99;79.34;100760.73;106699;1285;58225;-80
2023/07/15 04:42:15;;;;;;;8.60;5.50;;;;;;;32.38;74.81;100763.09;106967;1285;58677;-81
2023/07/15 04:44:40;;;;;;;9.00;5.50;;;;;;;32.78;73.51;100763.95;106491;1287;58462;-79
2023/07/15 04:47:06;;;;;;;15.20;5.40;;;;;;;33.10;70.22;100765.83;106481;1287;59448;-79
2023/07/15 04:49:32;;;;;;;9.10;5.10;;;;;;;33.13;66.55;100768.92;106441;1287;61202;-80
2023/07/15 04:51:57;;;;;;;8.50;5.30;;;;;;;33.24;66.37;100772.52;106455;1287;58438;-80
2023/07/15 04:54:23;;;;;;;12.20;5.80;;;;;;;33.56;66.34;100770.82;106521;1287;58340;-79
2023/07/15 04:56:48;;;;;;;8.20;5.50;;;;;;;33.72;63.74;100774.98;106446;1287;58357;-80
2023/07/15 04:59:14;;;;;;;13.80;6.20;;;;;;;33.92;63.22;100777.18;106581;1287;58254;-80
2023/07/15 05:01:40;;;;;;;9.20;5.50;;;;;;;34.01;60.59;100779.41;106484;1287;73727;-81
2023/07/15 05:04:05;;;;;;;9.50;6.10;;;;;;;33.93;60.15;100779.95;106281;1288;58270;-81
2023/07/15 05:06:33;;;;;;;12.40;5.90;;;;;;;34.08;60.03;100786.21;106268;1288;58375;-81
2023/07/15 05:09:00;;;;;;;9.00;6.00;;;;;;;34.24;58.76;100788.03;106476;1287;58459;-81
2023/07/15 05:11:26;;;;;;;9.00;5.40;;;;;;;34.52;58.37;100784.41;106512;1287;58276;-81
2023/07/15 05:13:52;;;;;;;13.40;6.00;;;;;;;34.86;57.31;100790.27;106461;1287;58348;-80
2023/07/15 05:16:18;;;;;;;12.20;5.90;;;;;;;35.13;56.48;100791.02;106774;1284;58607;-80
2023/07/15 05:19:03;;;;;;;9.10;6.00;;;;;;;35.31;55.09;100796.03;106934;1284;58256;-80
2023/07/15 05:21:31;;;;;;;9.40;5.40;;;;;;;35.28;52.68;100800.81;106731;1285;59997;-81
2023/07/15 05:23:57;;;;;;;8.60;5.60;;;;;;;35.14;52.98;100801.34;106699;1283;60170;-80
2023/07/15 05:26:22;;;;;;;7.00;5.40;;;;;;;35.55;53.91;100804.85;106949;1283;58238;-80
2023/07/15 05:28:48;;;;;;;8.10;5.40;;;;;;;35.89;52.58;100805.15;106562;1285;59205;-80
2023/07/15 05:31:13;;;;;;;9.10;5.70;;;;;;;36.01;51.76;100807.96;106921;1285;58267;-81
2023/07/15 05:33:39;;;;;;;6.60;5.70;;;;;;;36.24;51.17;100806.30;107020;1284;58345;-81
2023/07/15 05:36:05;;;;;;;7.60;5.60;;;;;;;36.49;51.47;100808.54;106894;1284;74613;-80
2023/07/15 05:38:31;;;;;;;7.00;5.20;;;;;;;36.85;50.02;100806.66;106971;1284;58265;-81
2023/07/15 05:40:56;;;;;;;8.40;5.50;;;;;;;36.99;48.69;100802.00;106933;1283;58304;-81
2023/07/15 05:43:22;;;;;;;11.80;5.60;;;;;;;37.12;47.46;100803.10;106918;1284;58196;-80
2023/07/15 05:45:47;;;;;;;6.70;5.10;;;;;;;37.05;46.77;100803.98;106960;1283;58200;-80
2023/07/15 05:48:13;;;;;;;10.00;6.10;;;;;;;37.07;46.36;100808.19;106991;1284;58164;-80
2023/07/15 05:50:39;;;;;;;10.30;5.30;;;;;;;37.08;46.40;100812.17;106927;1283;73820;-81
2023/07/15 05:53:05;;;;;;;9.40;5.60;;;;;;;37.27;46.04;100814.13;106937;1284;58224;-81
2023/07/15 05:55:33;;;;;;;8.70;5.30;;;;;;;37.32;45.18;100820.10;106977;1284;58650;-79
2023/07/15 05:57:59;;;;;;;11.70;5.40;;;;;;;37.38;45.66;100821.65;106990;1285;74635;-80
2023/07/15 06:00:25;;;;;;;7.70;5.10;;;;;;;37.76;45.20;100823.27;106947;1285;58210;-80
2023/07/15 06:02:50;;;;;;;6.70;5.10;;;;;;;38.03;44.49;100821.02;106952;1284;58277;-80
2023/07/15 06:05:16;;;;;;;11.40;5.50;;;;;;;38.39;44.50;100827.02;106979;1284;58158;-81
2023/07/15 06:07:41;;;;;;;6.30;4.50;;;;;;;38.65;43.61;100826.45;106621;1287;58565;-81
2023/07/15 06:10:07;;;;;;;8.60;4.90;;;;;;;38.89;42.77;100827.10;106616;1287;58444;-80
2023/07/15 06:12:33;;;;;;;7.00;5.10;;;;;;;39.06;41.43;100831.48;106592;1287;72934;-80
2023/07/15 06:14:58;;;;;;;10.70;5.00;;;;;;;39.16;41.11;100831.58;106447;1287;58205;-81
2023/07/15 06:17:24;;;;;;;5.70;5.10;;;;;;;39.26;40.79;100834.30;106592;1286;58451;-81
2023/07/15 06:19:49;;;;;;;7.50;4.80;;;;;;;39.46;40.14;100833.51;106597;1287;58171;-81
2023/07/15 06:22:15;;;;;;;10.40;5.20;;;;;;;39.40;40.18;100833.85;106567;1286;58501;-81
2023/07/15 06:24:40;;;;;;;10.30;5.10;;;;;;;39.71;40.22;100836.95;106515;1287;60982;-81
2023/07/15 06:27:08;;;;;;;7.80;4.50;;;;;;;40.08;39.62;100838.98;106376;1287;58823;-81
2023/07/15 06:29:34;;;;;;;7.20;4.30;;;;;;;40.40;38.86;100840.95;106336;1288;74468;-81
2023/07/15 06:32:00;;;;;;;6.50;4.50;;;;;;;40.68;37.98;100840.73;106392;1289;58452;-81
2023/07/15 06:34:28;;;;;;;6.80;4.40;;;;;;;40.86;36.77;100846.01;106585;1287;58876;-81
2023/07/15 06:36:54;;;;;;;6.40;3.90;;;;;;;40.97;37.25;100843.63;106668;1286;60156;-80
2023/07/15 06:39:19;;;;;;;8.90;4.60;;;;;;;41.23;36.98;100844.29;106900;1283;58278;-81
2023/07/15 06:41:50;;;;;;;4.30;3.80;;;;;;;41.54;36.24;100843.23;106667;1283;59533;-80
2023/07/15 06:44:15;;;;;;;4.70;4.20;;;;;;;41.46;34.58;100846.02;106967;1283;74535;-80
2023/07/15 06:46:48;;;;;;;4.10;3.70;;;;;;;41.05;34.21;100850.34;107057;1283;58529;-80
2023/07/15 06:49:16;;;;;;;7.80;3.80;;;;;;;40.99;33.83;100853.48;106972;1283;60065;-81
2023/07/15 06:51:42;;;;;;;7.30;4.10;;;;;;;40.93;33.87;100851.02;106800;1282;60044;-80
2023/07/15 06:54:07;;;;;;;5.50;4.00;;;;;;;41.01;33.67;100847.84;107034;1283;59043;-80
2023/07/15 06:56:35;;;;;;;4.30;3.80;;;;;;;41.23;34.29;100851.58;107098;1283;58333;-81
2023/07/15 06:59:02;;;;;;;8.30;3.50;;;;;;;41.46;33.03;100855.80;106483;1283;58394;-77
2023/07/15 07:01:30;;;;;;;5.80;3.40;;;;;;;41.37;32.02;100860.77;106997;1283;60640;-77
2023/07/15 07:03:56;;;;;;;7.30;3.70;;;;;;;40.91;31.80;100861.33;107005;1283;61146;-77
2023/07/15 07:06:21;;;;;;;7.90;3.40;;;;;;;40.86;31.96;100859.73;106695;1283;58359;-78
2023/07/15 07:08:47;;;;;;;9.90;3.40;;;;;;;41.02;31.99;100859.50;107070;1283;58262;-77
2023/07/15 07:11:13;;;;;;;4.40;3.30;;;;;;;41.00;31.09;100853.52;107018;1283;58223;-77
2023/07/15 07:13:38;;;;;;;8.80;3.60;;;;;;;40.66;31.18;100857.51;107005;1283;58551;-77
2023/07/15 07:16:04;;;;;;;6.30;3.20;;;;;;;40.53;31.31;100854.27;107073;1283;58526;-77
2023/07/15 07:18:29;;;;;;;5.50;3.60;;;;;;;40.67;31.50;100854.98;107043;1283;58262;-77
2023/07/15 07:21:01;;;;;;;9.60;4.00;;;;;;;40.58;31.36;100853.35;106476;1283;58722;-77
2023/07/15 07:23:30;;;;;;;6.50;3.60;;;;;;;40.63;31.86;100852.60;106983;1283;61185;-77
2023/07/15 07:25:55;;;;;;;7.30;3.40;;;;;;;40.90;32.01;100851.80;106749;1283;61231;-78
2023/07/15 07:28:23;;;;;;;4.60;3.30;;;;;;;40.58;30.78;100852.21;107029;1283;58264;-79
2023/07/15 07:30:50;;;;;;;7.50;3.30;;;;;;;39.93;30.98;100851.02;107056;1283;74299;-78
2023/07/15 07:33:15;;;;;;;4.40;3.20;;;;;;;39.63;32.16;100846.23;106989;1283;58538;-79
2023/07/15 07:35:47;;;;;;;5.00;3.20;;;;;;;39.80;32.17;100846.01;107016;1283;58693;-78
2023/07/15 07:38:13;;;;;;;6.50;3.00;;;;;;;40.02;32.05;100850.12;107014;1283;61320;-78
2023/07/15 07:40:46;;;;;;;5.30;2.80;;;;;;;40.40;31.98;100851.84;106782;1283;58572;-79
2023/07/15 07:43:15;;;;;;;5.10;2.90;;;;;;;40.58;31.01;100858.91;106756;1283;73312;-78
2023/07/15 07:45:41;;;;;;;4.70;2.90;;;;;;;40.28;30.69;100860.67;106607;1283;72837;-78
2023/07/15 07:48:08;;;;;;;6.70;3.00;;;;;;;40.10;31.48;100855.90;107017;1283;58326;-78
2023/07/15 07:50:52;;;;;;;7.20;3.10;;;;;;;40.14;31.31;100861.58;106537;1283;60940;-78
2023/07/15 07:53:17;;;;;;;9.60;3.00;;;;;;;40.11;30.77;100862.76;106560;1283;74563;-79
2023/07/15 07:55:46;;;;;;;5.80;2.70;;;;;;;40.20;30.97;100859.09;107077;1283;58650;-78
2023/07/15 07:58:11;;;;;;;4.20;2.80;;;;;;;40.18;30.55;100863.79;106987;1283;72601;-78
2023/07/15 08:00:37;;;;;;;8.00;2.80;;;;;;;40.00;30.76;100865.20;107032;1283;59212;-78
2023/07/15 08:03:02;;;;;;;9.00;3.20;;;;;;;39.84;31.19;100862.73;107101;1283;58313;-78
2023/07/15 08:05:28;;;;;;;5.10;2.60;;;;;;;39.96;31.53;100861.00;106798;1283;58488;-78
2023/07/15 08:07:54;;;;;;;4.90;2.30;;;;;;;40.22;31.07;100861.63;107063;1283;58627;-78
2023/07/15 08:10:19;;;;;;;4.30;3.10;;;;;;;40.23;30.91;100863.31;106673;1287;60142;-81
2023/07/15 08:12:45;;;;;;;4.60;2.20;;;;;;;40.19;31.05;100857.67;106686;1287;58621;-80
2023/07/15 08:15:10;;;;;;;4.20;2.50;;;;;;;40.57;31.18;100865.77;106705;1287;58372;-80
2023/07/15 08:17:36;;;;;;;3.20;2.30;;;;;;;40.60;30.48;100862.63;106688;1287;58283;-80
2023/07/15 08:20:03;;;;;;;6.00;2.10;;;;;;;40.66;30.13;100863.23;106248;1291;58281;-80
2023/07/15 08:22:28;;;;;;;4.20;2.60;;;;;;;40.40;29.75;100864.99;106261;1291;58180;-79
2023/07/15 08:24:55;;;;;;;7.60;2.80;;;;;;;39.89;30.81;100865.30;106225;1291;58389;-80
2023/07/15 08:27:20;;;;;;;4.00;2.00;;;;;;;39.92;30.67;100861.55;106251;1290;72587;-80
2023/07/15 08:29:46;;;;;;;2.60;2.20;;;;;;;39.61;30.38;100862.66;106253;1291;58369;-80
2023/07/15 08:32:12;;;;;;;4.50;2.40;;;;;;;39.80;30.61;100863.16;106190;1291;58481;-80
2023/07/15 08:34:37;;;;;;;3.60;2.00;;;;;;;40.01;30.18;100863.08;106361;1290;58506;-80
2023/07/15 08:37:03;;;;;;;7.60;1.90;;;;;;;39.77;29.51;100863.51;106283;1291;58356;-81
2023/07/15 08:39:28;;;;;;;4.20;1.90;;;;;;;39.65;30.14;100861.09;106356;1290;58766;-80
2023/07/15 08:41:55;;;;;;;4.40;2.30;;;;;;;39.97;29.36;100865.96;106240;1291;58583;-81
2023/07/15 08:44:21;;;;;;;3.20;2.10;;;;;;;39.88;29.69;100867.50;106314;1290;61209;-80
2023/07/15 08:46:48;;;;;;;5.40;2.10;;;;;;;39.88;29.87;100867.16;106299;1290;58358;-80
2023/07/15 08:49:15;;;;;;;3.70;2.20;;;;;;;39.75;29.98;100866.06;106484;1288;58404;-81
2023/07/15 08:51:41;;;;;;;6.00;2.00;;;;;;;39.61;29.50;100863.40;106200;1288;339653;-80
2023/07/15 08:54:08;;;;;;;5.70;1.90;;;;;;;39.41;29.53;100866.88;106448;1288;58256;-81
2023/07/15 08:56:34;;;;;;;3.80;2.00;;;;;;;39.60;30.00;100864.33;106468;1288;58227;-81
2023/07/15 08:59:03;;;;;;;2.90;1.80;;;;;;;39.53;29.76;100865.27;106900;1284;58542;-80
2023/07/15 09:01:28;;;;;;;4.70;1.90;;;;;;;39.04;29.28;100859.73;106956;1285;74279;-81
2023/07/15 09:03:54;;;;;;;4.20;1.70;;;;;;;38.35;30.37;100862.54;106486;1284;58475;-80
2023/07/15 09:06:19;;;;;;;5.80;2.00;;;;;;;38.61;30.29;100865.02;106960;1284;58302;-81
2023/07/15 09:08:52;;;;;;;4.40;2.20;;;;;;;38.74;30.18;100869.08;106547;1284;58370;-81
2023/07/15 09:11:20;;;;;;;3.70;1.70;;;;;;;38.94;29.65;100855.77;106933;1284;74582;-80
2023/07/15 09:13:46;;;;;;;3.70;1.70;;;;;;;39.00;29.53;100852.78;106823;1285;73800;-81
2023/07/15 09:16:12;;;;;;;3.50;1.80;;;;;;;39.06;30.20;100859.59;106960;1284;58213;-80
2023/07/15 09:18:42;;;;;;;2.70;1.80;;;;;;;38.98;29.67;100863.77;106952;1284;58177;-81
2023/07/15 09:21:14;;;;;;;4.60;2.10;;;;;;;38.73;30.03;100864.46;106931;1284;60306;-81
2023/07/15 09:23:42;;;;;;;6.60;2.10;;;;;;;38.85;30.06;100865.39;106705;1284;73751;-81
2023/07/15 09:26:09;;;;;;;4.60;1.80;;;;;;;38.92;30.09;100863.10;106949;1284;73575;-80
2023/07/15 09:28:35;;;;;;;3.50;1.60;;;;;;;38.93;29.74;100860.17;106423;1288;73079;-81
2023/07/15 09:31:03;;;;;;;5.40;1.70;;;;;;;38.88;29.61;100866.25;106162;1288;58625;-81
2023/07/15 09:33:40;;;;;;;4.00;1.70;;;;;;;38.65;29.48;100871.35;106492;1288;61597;-80
2023/07/15 09:36:06;;;;;;;3.30;1.70;;;;;;;38.30;29.89;100868.80;106438;1288;73502;-81
2023/07/15 09:38:34;;;;;;;8.10;1.70;;;;;;;38.43;30.41;100870.77;106450;1288;73755;-80
2023/07/15 09:41:00;;;;;;;3.70;1.70;;;;;;;38.30;30.11;100871.27;106431;1288;73273;-81
2023/07/15 09:43:50;;;;;;;3.00;1.80;;;;;;;38.01;30.39;100874.27;106473;1288;58507;-81
2023/07/15 09:46:19;;;;;;;4.70;1.80;;;;;;;37.81;31.58;100867.52;105936;1295;61046;-81
2023/07/15 09:48:46;;;;;;;3.40;1.80;;;;;;;37.88;30.84;100873.92;105635;1298;73621;-81
2023/07/15 09:51:13;;;;;;;2.00;1.70;;;;;;;37.87;31.04;100872.25;105597;1299;74782;-81
2023/07/15 09:53:49;;;;;;;6.20;1.80;;;;;;;37.85;30.92;100872.24;105625;1298;73834;-81
2023/07/15 09:56:30;;;;;;;7.60;1.80;;;;;;;37.60;31.07;100872.64;105523;1298;59989;-81
2023/07/15 09:59:02;;;;;;;6.90;1.60;;;;;;;37.47;31.89;100870.29;105673;1299;60425;-79
2023/07/15 10:01:46;;;;;;;4.40;1.80;;;;;;;37.38;31.69;100872.02;105992;1293;74439;-81
2023/07/15 10:04:30;;;;;;;4.10;1.40;;;;;;;37.10;31.25;100877.80;106009;1293;73505;-81
2023/07/15 10:06:56;;;;;;;5.10;1.80;;;;;;;36.79;31.01;100872.53;105870;1296;72330;-80
2023/07/15 10:09:22;;;;;;;6.40;1.70;;;;;;;36.46;32.03;100880.64;105896;1295;58388;-81
2023/07/15 10:11:48;;;;;;;4.60;1.90;;;;;;;36.41;32.82;100878.19;105874;1295;58395;-80
2023/07/15 10:14:14;;;;;;;4.40;1.90;;;;;;;36.24;32.47;100875.62;105630;1297;58385;-81
2023/07/15 10:16:40;;;;;;;6.00;2.10;;;;;;;35.93;32.78;100875.59;105914;1295;58701;-80
2023/07/15 10:19:43;;;;;;;2.50;1.60;;;;;;;35.94;33.03;100875.73;105903;1296;58775;-80
2023/07/15 10:22:10;;;;;;;4.60;1.90;;;;;;;35.82;32.23;100881.70;106166;1291;60006;-81
2023/07/15 10:24:35;;;;;;;3.70;1.50;;;;;;;35.55;32.65;100877.09;106669;1285;60007;-80
2023/07/15 10:27:07;;;;;;;7.20;1.80;;;;;;;35.69;32.72;100882.27;106670;1285;58306;-79
2023/07/15 10:29:32;;;;;;;6.90;1.70;;;;;;;35.61;32.68;100879.98;106813;1285;72975;-81
2023/07/15 10:32:18;;;;;;;7.00;1.50;;;;;;;35.38;31.81;100880.48;106768;1285;58645;-80
2023/07/15 10:34:50;;;;;;;5.50;1.50;;;;;;;35.23;32.17;100880.95;106734;1285;60877;-79
2023/07/15 10:37:17;;;;;;;3.60;1.80;;;;;;;35.15;32.23;100871.61;106805;1285;61369;-80
2023/07/15 10:39:44;;;;;;;3.90;1.80;;;;;;;35.01;32.91;100873.05;107013;1283;74687;-80
2023/07/15 10:42:17;;;;;;;2.00;1.60;;;;;;;35.12;33.30;100870.54;107035;1283;73863;-80
2023/07/15 10:44:52;;;;;;;2.80;1.70;;;;;;;35.20;32.79;100870.98;107054;1283;73684;-80
2023/07/15 10:47:19;;;;;;;6.50;1.80;;;;;;;35.11;33.26;100866.31;106520;1283;61605;-79
2023/07/15 10:49:45;;;;;;;3.80;1.70;;;;;;;35.17;33.76;100862.38;107048;1283;58266;-80
2023/07/15 10:52:11;;;;;;;3.00;1.70;;;;;;;35.28;34.29;100859.16;107081;1283;58175;-81
2023/07/15 10:54:40;;;;;;;3.40;1.70;;;;;;;35.58;33.28;100869.52;107082;1283;58189;-81
2023/07/15 10:57:15;;;;;;;6.30;1.60;;;;;;;35.64;32.25;100871.52;107022;1283;73501;-80
2023/07/15 10:59:46;;;;;;;4.80;1.50;;;;;;;35.59;32.50;100860.63;106984;1283;60902;-80
2023/07/15 11:02:12;;;;;;;2.90;1.60;;;;;;;35.16;32.27;100865.90;107055;1283;60141;-81
2023/07/15 11:04:40;;;;;;;5.40;1.70;;;;;;;34.63;32.97;100867.23;107082;1283;73668;-80
2023/07/15 11:07:11;;;;;;;6.20;1.80;;;;;;;34.54;33.48;100864.06;107060;1283;74923;-80
2023/07/15 11:09:41;;;;;;;6.40;1.60;;;;;;;34.53;33.69;100857.66;107042;1283;73271;-79
2023/07/15 11:12:08;;;;;;;4.20;1.40;;;;;;;34.66;33.98;100861.36;107003;1283;60934;-81